Time;durP1;ratioP1;P1;durP2;ratioP2;P2;SDS_P1;SDS_P2;PMS_P1;PMS_P2;Temp;Humidity;BMP_temperature;BMP_pressure;BME280_temperature;BME280_humidity;BME280_pressure;Samples;Min_cycle;Max_cycle;Signal;HPM_P1;HPM_P2
2023/04/01 00:02:24;;;;;;;;;;;20.40;45.70;;;;;;5067876;28;19925;-58
2023/04/01 00:04:51;;;;;;;;;;;20.40;45.70;;;;;;5067658;28;19932;-59
2023/04/01 00:07:17;;;;;;;;;;;20.40;45.70;;;;;;5064690;28;19921;-59
2023/04/01 00:09:44;;;;;;;;;;;20.50;45.80;;;;;;5063689;28;20279;-58
2023/04/01 00:12:11;;;;;;;;;;;20.50;45.80;;;;;;5068879;28;19926;-59
2023/04/01 00:14:39;;;;;;;;;;;20.40;45.80;;;;;;5064600;28;19974;-59
2023/04/01 00:17:06;;;;;;;;;;;20.40;45.80;;;;;;5064959;28;19932;-58
2023/04/01 00:19:33;;;;;;;;;;;20.40;45.70;;;;;;5081720;28;20119;-58
2023/04/01 00:22:00;;;;;;;;;;;20.40;45.80;;;;;;5064862;28;19925;-58
2023/04/01 00:24:26;;;;;;;;;;;20.40;45.80;;;;;;5068609;28;19927;-58
2023/04/01 00:26:53;;;;;;;;;;;20.40;45.80;;;;;;5066693;28;19929;-58
2023/04/01 00:29:20;;;;;;;;;;;20.40;45.80;;;;;;5066301;28;19951;-58
2023/04/01 00:31:48;;;;;;;;;;;20.40;45.80;;;;;;5063654;28;19921;-57
2023/04/01 00:34:15;;;;;;;;;;;20.40;45.80;;;;;;5065090;28;19931;-59
2023/04/01 00:36:42;;;;;;;;;;;20.40;45.80;;;;;;5063674;28;19925;-59
2023/04/01 00:39:09;;;;;;;;;;;20.40;45.80;;;;;;5065439;28;19968;-59
2023/04/01 00:41:39;;;;;;;;;;;20.40;45.80;;;;;;5070592;28;19920;-59
2023/04/01 00:44:16;;;;;;;;;;;20.40;45.80;;;;;;5064273;28;19953;-59
2023/04/01 00:46:42;;;;;;;;;;;20.40;46.40;;;;;;5063620;28;19935;-58
2023/04/01 00:49:10;;;;;;;;;;;20.40;45.80;;;;;;5082512;28;19962;-59
2023/04/01 00:51:37;;;;;;;;;;;20.40;45.80;;;;;;5067345;28;19924;-58
2023/04/01 00:54:04;;;;;;;;;;;20.40;45.80;;;;;;5068628;28;20027;-58
2023/04/01 00:56:32;;;;;;;;;;;20.40;45.80;;;;;;5070007;28;19924;-58
2023/04/01 00:58:59;;;;;;;;;;;20.30;45.70;;;;;;5069020;28;19925;-58
2023/04/01 01:01:26;;;;;;;;;;;20.30;45.80;;;;;;5070348;28;19924;-58
2023/04/01 01:03:53;;;;;;;;;;;20.40;45.80;;;;;;5072555;28;20390;-58
2023/04/01 01:06:24;;;;;;;;;;;20.30;45.70;;;;;;5069589;28;19932;-59
2023/04/01 01:09:12;;;;;;;;;;;20.30;45.80;;;;;;5069133;28;20019;-59
2023/04/01 01:11:41;;;;;;;;;;;20.40;45.90;;;;;;5057794;28;19921;-59
2023/04/01 01:14:12;;;;;;;;;;;20.30;45.80;;;;;;5070306;28;19924;-59
2023/04/01 01:16:40;;;;;;;;;;;20.30;45.80;;;;;;5070913;28;20043;-59
2023/04/01 01:19:09;;;;;;;;;;;20.30;45.80;;;;;;5069144;28;19925;-59
2023/04/01 01:22:03;;;;;;;;;;;20.30;45.80;;;;;;5071326;28;19928;-59
2023/04/01 01:24:40;;;;;;;;;;;20.30;45.80;;;;;;5016350;28;19920;-59
2023/04/01 01:27:07;;;;;;;;;;;20.30;45.80;;;;;;5069241;28;19921;-59
2023/04/01 01:29:43;;;;;;;;;;;20.30;45.80;;;;;;5067886;28;19924;-59
2023/04/01 01:32:11;;;;;;;;;;;20.30;45.80;;;;;;5069216;28;19921;-59
2023/04/01 01:34:40;;;;;;;;;;;20.30;45.80;;;;;;5068873;28;20013;-59
2023/04/01 01:37:09;;;;;;;;;;;20.30;45.80;;;;;;5076398;28;19974;-59
2023/04/01 01:39:36;;;;;;;;;;;20.30;45.80;;;;;;5064624;28;19928;-59
2023/04/01 01:42:04;;;;;;;;;;;20.30;45.80;;;;;;5068493;28;19921;-58
2023/04/01 01:44:30;;;;;;;;;;;20.30;45.80;;;;;;5068559;28;19985;-59
2023/04/01 01:46:57;;;;;;;;;;;20.30;45.80;;;;;;5066207;28;19974;-59
2023/04/01 01:49:24;;;;;;;;;;;20.30;45.80;;;;;;5068530;28;19973;-59
2023/04/01 01:51:51;;;;;;;;;;;20.30;45.80;;;;;;5070212;28;19939;-59
2023/04/01 01:54:19;;;;;;;;;;;20.30;45.80;;;;;;5068667;28;19970;-59
2023/04/01 01:56:46;;;;;;;;;;;20.30;45.80;;;;;;5069987;28;19978;-59
2023/04/01 01:59:13;;;;;;;;;;;20.30;45.80;;;;;;5067652;28;19943;-59
2023/04/01 02:01:41;;;;;;;;;;;20.30;45.80;;;;;;5068587;28;19962;-59
2023/04/01 02:04:08;;;;;;;;;;;20.30;45.80;;;;;;5066424;28;20375;-58
2023/04/01 02:06:35;;;;;;;;;;;20.30;45.80;;;;;;5069962;28;19966;-59
2023/04/01 02:09:06;;;;;;;;;;;20.30;45.80;;;;;;5085584;28;19929;-58
2023/04/01 02:11:36;;;;;;;;;;;20.30;45.80;;;;;;5061261;28;19920;-58
2023/04/01 02:14:03;;;;;;;;;;;20.30;45.80;;;;;;5067495;28;19920;-58
2023/04/01 02:16:32;;;;;;;;;;;20.20;45.80;;;;;;5076135;28;19997;-58
2023/04/01 02:18:59;;;;;;;;;;;20.30;45.80;;;;;;5075580;28;19960;-58
2023/04/01 02:21:26;;;;;;;;;;;20.30;45.80;;;;;;5062812;28;19931;-58
2023/04/01 02:23:53;;;;;;;;;;;20.20;45.80;;;;;;5067498;28;19943;-58
2023/04/01 02:26:20;;;;;;;;;;;20.20;45.80;;;;;;5068132;28;19974;-57
2023/04/01 02:28:48;;;;;;;;;;;20.20;45.80;;;;;;5081897;28;19944;-58
2023/04/01 02:31:14;;;;;;;;;;;20.20;45.80;;;;;;5067788;28;19943;-58
2023/04/01 02:33:41;;;;;;;;;;;20.30;45.80;;;;;;5067482;28;20066;-58
2023/04/01 02:36:11;;;;;;;;;;;20.20;45.80;;;;;;5083898;28;19974;-59
2023/04/01 02:38:38;;;;;;;;;;;20.20;45.80;;;;;;5069360;28;19974;-59
2023/04/01 02:41:05;;;;;;;;;;;20.20;45.80;;;;;;5067376;28;19970;-59
2023/04/01 02:43:32;;;;;;;;;;;20.30;45.80;;;;;;5067328;28;19939;-58
2023/04/01 02:46:01;;;;;;;;;;;20.30;45.80;;;;;;5067935;28;19950;-59
2023/04/01 02:48:28;;;;;;;;;;;20.20;45.80;;;;;;5071270;28;19934;-58
2023/04/01 02:50:55;;;;;;;;;;;20.20;45.80;;;;;;5067673;28;19920;-59
2023/04/01 02:53:22;;;;;;;;;;;20.30;45.90;;;;;;5066332;28;19920;-57
2023/04/01 02:55:50;;;;;;;;;;;20.20;45.80;;;;;;5084723;28;19921;-57
2023/04/01 02:58:16;;;;;;;;;;;20.20;45.80;;;;;;5067703;28;19955;-58
2023/04/01 03:00:43;;;;;;;;;;;20.20;45.80;;;;;;5067967;28;19931;-58
2023/04/01 03:03:13;;;;;;;;;;;20.20;45.80;;;;;;5066686;28;19920;-58
2023/04/01 03:05:39;;;;;;;;;;;20.20;45.80;;;;;;5067775;28;19959;-58
2023/04/01 03:08:07;;;;;;;;;;;20.20;45.80;;;;;;5066737;28;19981;-59
2023/04/01 03:10:33;;;;;;;;;;;20.20;45.80;;;;;;5069335;28;19920;-58
2023/04/01 03:13:00;;;;;;;;;;;20.20;45.80;;;;;;5068289;28;19920;-58
2023/04/01 03:15:27;;;;;;;;;;;20.20;45.80;;;;;;5068643;28;19974;-58
2023/04/01 03:17:54;;;;;;;;;;;20.20;45.80;;;;;;5078946;28;19925;-58
2023/04/01 03:20:22;;;;;;;;;;;20.20;45.80;;;;;;5068848;28;19920;-58
2023/04/01 03:22:48;;;;;;;;;;;20.20;45.80;;;;;;5066968;28;20037;-58
2023/04/01 03:25:15;;;;;;;;;;;20.20;45.80;;;;;;5066449;28;19920;-58
2023/04/01 03:27:42;;;;;;;;;;;20.20;45.80;;;;;;5067756;28;19970;-58
2023/04/01 03:30:09;;;;;;;;;;;20.20;45.80;;;;;;5066934;28;19950;-59
2023/04/01 03:32:36;;;;;;;;;;;20.20;45.80;;;;;;5070795;28;20363;-58
2023/04/01 03:35:03;;;;;;;;;;;20.20;45.80;;;;;;5067202;28;19924;-58
2023/04/01 03:37:31;;;;;;;;;;;20.20;45.80;;;;;;5067574;28;19995;-58
2023/04/01 03:39:58;;;;;;;;;;;20.20;45.80;;;;;;5068825;28;19944;-58
2023/04/01 03:42:25;;;;;;;;;;;20.10;45.70;;;;;;5062819;28;19921;-58
2023/04/01 03:44:52;;;;;;;;;;;20.20;45.80;;;;;;5068288;28;19924;-57
2023/04/01 03:47:19;;;;;;;;;;;20.20;45.80;;;;;;5066807;28;19950;-59
2023/04/01 03:49:46;;;;;;;;;;;20.20;45.80;;;;;;5067564;28;19935;-58
2023/04/01 03:52:13;;;;;;;;;;;20.10;45.70;;;;;;5066239;28;19986;-58
2023/04/01 03:54:41;;;;;;;;;;;20.20;45.80;;;;;;5068500;28;19998;-58
2023/04/01 03:57:07;;;;;;;;;;;20.20;45.80;;;;;;5061846;28;19960;-58
2023/04/01 03:59:34;;;;;;;;;;;20.20;45.90;;;;;;5075694;28;19932;-58
2023/04/01 04:02:01;;;;;;;;;;;20.20;45.80;;;;;;5066871;28;20495;-58
2023/04/01 04:04:28;;;;;;;;;;;20.10;45.70;;;;;;5067176;28;19965;-58
2023/04/01 04:06:55;;;;;;;;;;;20.20;45.80;;;;;;5071263;28;19920;-58
2023/04/01 04:09:21;;;;;;;;;;;20.10;45.70;;;;;;5067091;28;19959;-57
2023/04/01 04:11:49;;;;;;;;;;;20.10;45.70;;;;;;5068840;28;19920;-58
2023/04/01 04:14:16;;;;;;;;;;;20.20;45.80;;;;;;5079218;28;19968;-58
2023/04/01 04:16:43;;;;;;;;;;;20.20;45.90;;;;;;5083717;28;20367;-58
2023/04/01 04:19:10;;;;;;;;;;;20.10;45.80;;;;;;5081217;28;19950;-58
2023/04/01 04:21:37;;;;;;;;;;;20.20;45.80;;;;;;5075217;28;20026;-58
2023/04/01 04:24:04;;;;;;;;;;;20.20;45.80;;;;;;5066280;28;19924;-58
2023/04/01 04:26:30;;;;;;;;;;;20.10;45.80;;;;;;5064219;28;19942;-58
2023/04/01 04:28:58;;;;;;;;;;;20.20;45.80;;;;;;5070150;28;19966;-58
2023/04/01 04:31:25;;;;;;;;;;;20.10;45.70;;;;;;5070998;28;19921;-58
2023/04/01 04:33:52;;;;;;;;;;;20.20;45.80;;;;;;5069876;28;19935;-58
2023/04/01 04:36:19;;;;;;;;;;;20.20;45.90;;;;;;5077070;28;19921;-58
2023/04/01 04:38:46;;;;;;;;;;;20.10;45.80;;;;;;5070086;28;19924;-58
2023/04/01 04:41:13;;;;;;;;;;;20.10;45.80;;;;;;5069825;28;20231;-58
2023/04/01 04:43:40;;;;;;;;;;;20.10;45.80;;;;;;5065202;28;19921;-58
2023/04/01 04:46:08;;;;;;;;;;;20.10;45.80;;;;;;5087561;28;19920;-59
2023/04/01 04:48:35;;;;;;;;;;;20.10;45.80;;;;;;5068502;28;19943;-59
2023/04/01 04:51:02;;;;;;;;;;;20.10;45.80;;;;;;5069666;28;19928;-58
2023/04/01 04:53:28;;;;;;;;;;;20.10;45.80;;;;;;5069505;28;19921;-58
2023/04/01 04:55:55;;;;;;;;;;;20.10;45.80;;;;;;5077870;28;20436;-58
2023/04/01 04:58:22;;;;;;;;;;;20.10;45.80;;;;;;5078445;28;19921;-58
2023/04/01 05:00:49;;;;;;;;;;;20.10;45.80;;;;;;5069627;28;19963;-58
2023/04/01 05:03:17;;;;;;;;;;;20.10;45.80;;;;;;5069940;28;19920;-58
2023/04/01 05:05:48;;;;;;;;;;;20.10;45.80;;;;;;5070225;28;19956;-58
2023/04/01 05:08:15;;;;;;;;;;;20.10;45.80;;;;;;5069702;28;19928;-58
2023/04/01 05:10:42;;;;;;;;;;;20.10;45.80;;;;;;5077481;28;19924;-58
2023/04/01 05:13:09;;;;;;;;;;;20.10;45.80;;;;;;5068807;28;20452;-58
2023/04/01 05:15:35;;;;;;;;;;;20.10;45.80;;;;;;5077153;28;19933;-58
2023/04/01 05:18:02;;;;;;;;;;;20.10;45.80;;;;;;5070683;28;19966;-58
2023/04/01 05:20:30;;;;;;;;;;;20.10;45.80;;;;;;5076218;28;19924;-58
2023/04/01 05:22:57;;;;;;;;;;;20.00;45.70;;;;;;5068029;28;19928;-57
2023/04/01 05:25:24;;;;;;;;;;;20.10;45.80;;;;;;5070945;28;19932;-58
2023/04/01 05:27:51;;;;;;;;;;;20.10;45.80;;;;;;5069435;28;19921;-58
2023/04/01 05:30:18;;;;;;;;;;;20.10;45.80;;;;;;5069656;28;19925;-58
2023/04/01 05:32:44;;;;;;;;;;;20.10;45.80;;;;;;5069993;28;19977;-58
2023/04/01 05:35:11;;;;;;;;;;;20.10;45.80;;;;;;5068435;28;19932;-58
2023/04/01 05:37:39;;;;;;;;;;;20.10;45.80;;;;;;5068975;28;19932;-58
2023/04/01 05:40:07;;;;;;;;;;;20.10;45.90;;;;;;5067463;28;19920;-58
2023/04/01 05:42:34;;;;;;;;;;;20.00;45.80;;;;;;5069193;28;20090;-59
2023/04/01 05:45:00;;;;;;;;;;;20.10;45.80;;;;;;5068415;28;20021;-59
2023/04/01 05:47:27;;;;;;;;;;;20.00;45.80;;;;;;5085310;28;19990;-59
2023/04/01 05:49:55;;;;;;;;;;;20.10;45.90;;;;;;5069079;28;19936;-58
2023/04/01 05:52:21;;;;;;;;;;;20.00;45.80;;;;;;5069110;28;19950;-59
2023/04/01 05:54:50;;;;;;;;;;;20.10;45.90;;;;;;5066469;28;19966;-58
2023/04/01 05:57:16;;;;;;;;;;;20.00;45.80;;;;;;5068380;28;19928;-58
2023/04/01 05:59:44;;;;;;;;;;;20.00;45.80;;;;;;5065245;28;19925;-57
2023/04/01 06:02:11;;;;;;;;;;;20.00;45.80;;;;;;5068154;28;20346;-58
2023/04/01 06:04:38;;;;;;;;;;;20.00;45.80;;;;;;5069826;28;19922;-58
2023/04/01 06:07:06;;;;;;;;;;;20.00;45.80;;;;;;5069420;28;19959;-58
2023/04/01 06:09:33;;;;;;;;;;;20.10;45.90;;;;;;5085525;28;19940;-58
2023/04/01 06:12:15;;;;;;;;;;;20.00;45.80;;;;;;5064709;28;20320;-58
2023/04/01 06:14:44;;;;;;;;;;;20.10;45.90;;;;;;5059958;28;19920;-58
2023/04/01 06:17:17;;;;;;;;;;;20.00;45.80;;;;;;5060026;28;19940;-58
2023/04/01 06:19:45;;;;;;;;;;;20.10;45.90;;;;;;5068261;28;19988;-58
2023/04/01 06:22:16;;;;;;;;;;;20.00;45.80;;;;;;5084272;28;19981;-58
2023/04/01 06:24:50;;;;;;;;;;;20.00;45.80;;;;;;5067615;28;19928;-58
2023/04/01 06:27:19;;;;;;;;;;;20.00;45.80;;;;;;5059428;28;19927;-58
2023/04/01 06:29:50;;;;;;;;;;;20.00;45.80;;;;;;5068346;28;19952;-59
2023/04/01 06:32:23;;;;;;;;;;;20.00;45.80;;;;;;5067644;28;19990;-58
2023/04/01 06:35:07;;;;;;;;;;;20.10;45.90;;;;;;5066626;28;20379;-59
2023/04/01 06:37:45;;;;;;;;;;;20.10;45.90;;;;;;5054134;28;20058;-58
2023/04/01 06:40:20;;;;;;;;;;;20.10;45.90;;;;;;5068477;28;20333;-58
2023/04/01 06:42:50;;;;;;;;;;;20.10;45.80;;;;;;5068875;28;19921;-57
2023/04/01 06:45:21;;;;;;;;;;;20.00;45.80;;;;;;5059666;28;19966;-57
2023/04/01 06:47:52;;;;;;;;;;;20.00;45.70;;;;;;5067116;28;20249;-58
2023/04/01 06:50:21;;;;;;;;;;;20.00;45.70;;;;;;5060450;28;19974;-57
2023/04/01 06:52:49;;;;;;;;;;;20.00;45.70;;;;;;5067337;28;20007;-58
2023/04/01 06:55:25;;;;;;;;;;;20.00;45.60;;;;;;5064277;28;19978;-58
2023/04/01 06:57:53;;;;;;;;;;;20.00;45.60;;;;;;5067102;28;19920;-58
2023/04/01 07:00:23;;;;;;;;;;;20.00;45.60;;;;;;5067644;28;19925;-58
2023/04/01 07:02:53;;;;;;;;;;;20.00;45.50;;;;;;5060067;28;20363;-58
2023/04/01 07:05:20;;;;;;;;;;;20.00;45.50;;;;;;5062169;28;19921;-58
2023/04/01 07:07:48;;;;;;;;;;;20.00;45.50;;;;;;5062099;28;20354;-58
2023/04/01 07:10:15;;;;;;;;;;;20.00;45.50;;;;;;5063291;28;19952;-58
2023/04/01 07:12:44;;;;;;;;;;;20.00;45.50;;;;;;5059914;28;19994;-58
2023/04/01 07:15:13;;;;;;;;;;;20.00;45.40;;;;;;5060222;28;20016;-58
2023/04/01 07:17:42;;;;;;;;;;;20.00;45.30;;;;;;5062261;28;19927;-57
2023/04/01 07:20:12;;;;;;;;;;;20.00;45.30;;;;;;5060825;28;20001;-58
2023/04/01 07:22:39;;;;;;;;;;;20.00;45.30;;;;;;5059433;28;19921;-58
2023/04/01 07:25:06;;;;;;;;;;;20.00;45.20;;;;;;5059413;28;19947;-58
2023/04/01 07:27:34;;;;;;;;;;;20.00;45.20;;;;;;5056839;28;19921;-58
2023/04/01 07:30:01;;;;;;;;;;;20.00;45.20;;;;;;5058849;28;19924;-58
2023/04/01 07:32:31;;;;;;;;;;;20.00;45.10;;;;;;5057388;28;19920;-58
2023/04/01 07:38:10;;;;;;;;;;;19.90;45.00;;;;;;5129036;27;19920;-59
2023/04/01 07:40:40;;;;;;;;;;;19.90;44.90;;;;;;5106599;28;20247;-57
2023/04/01 07:43:24;;;;;;;;;;;19.90;44.90;;;;;;5129492;27;19932;-58
2023/04/01 07:45:52;;;;;;;;;;;19.90;44.90;;;;;;5113587;28;19984;-57
2023/04/01 07:48:21;;;;;;;;;;;20.00;45.00;;;;;;5111941;28;19931;-57
2023/04/01 07:50:48;;;;;;;;;;;20.00;44.90;;;;;;5113626;28;19931;-57
2023/04/01 07:53:16;;;;;;;;;;;19.90;44.80;;;;;;5111128;28;20027;-57
2023/04/01 07:55:46;;;;;;;;;;;19.90;44.90;;;;;;5107672;28;19927;-58
2023/04/01 07:58:15;;;;;;;;;;;19.90;44.80;;;;;;5110571;28;19969;-57
2023/04/01 08:00:43;;;;;;;;;;;19.90;44.70;;;;;;5113547;28;19932;-57
2023/04/01 08:03:14;;;;;;;;;;;19.90;44.60;;;;;;5110989;28;19932;-57
2023/04/01 08:05:41;;;;;;;;;;;19.90;44.60;;;;;;5115143;28;19924;-58
2023/04/01 08:08:10;;;;;;;;;;;19.90;44.50;;;;;;5114232;28;19953;-58
2023/04/01 08:10:38;;;;;;;;;;;19.90;44.50;;;;;;5111175;28;19939;-57
2023/04/01 08:13:07;;;;;;;;;;;19.90;44.50;;;;;;5108748;28;19927;-57
2023/04/01 08:15:35;;;;;;;;;;;19.90;44.50;;;;;;5109844;28;19967;-58
2023/04/01 08:18:07;;;;;;;;;;;19.90;44.50;;;;;;5115676;28;20332;-58
2023/04/01 08:20:35;;;;;;;;;;;19.90;44.50;;;;;;5113838;28;19966;-58
2023/04/01 08:23:04;;;;;;;;;;;19.90;44.40;;;;;;5111782;28;20019;-58
2023/04/01 08:25:31;;;;;;;;;;;19.90;44.40;;;;;;5112762;28;19965;-58
2023/04/01 08:27:58;;;;;;;;;;;19.90;44.50;;;;;;5110415;28;19920;-58
2023/04/01 08:30:27;;;;;;;;;;;19.90;44.40;;;;;;5129882;27;20393;-58
2023/04/01 08:32:54;;;;;;;;;;;19.90;44.40;;;;;;5107755;28;19920;-58
2023/04/01 08:35:25;;;;;;;;;;;19.90;44.40;;;;;;5107442;28;19997;-58
2023/04/01 08:37:52;;;;;;;;;;;19.90;44.40;;;;;;5114056;28;20246;-58
2023/04/01 08:40:52;;;;;;;;;;;19.90;44.30;;;;;;5108130;28;19920;-58
2023/04/01 08:43:21;;;;;;;;;;;19.80;44.10;;;;;;5044897;28;19983;-58
2023/04/01 08:45:52;;;;;;;;;;;19.80;44.10;;;;;;5019754;28;19928;-58
2023/04/01 08:48:29;;;;;;;;;;;19.80;44.00;;;;;;5054444;28;19941;-58
2023/04/01 08:51:13;;;;;;;;;;;19.90;44.00;;;;;;5091339;28;19972;-58
2023/04/01 08:53:57;;;;;;;;;;;19.90;44.10;;;;;;5065639;28;20274;-58
2023/04/01 08:56:25;;;;;;;;;;;19.80;44.00;;;;;;5083745;28;19974;-58
2023/04/01 08:59:10;;;;;;;;;;;19.90;44.00;;;;;;5100548;27;20011;-58
2023/04/01 09:01:47;;;;;;;;;;;19.80;44.00;;;;;;5090398;28;19987;-58
2023/04/01 09:04:15;;;;;;;;;;;19.80;44.00;;;;;;5083284;28;19920;-58
2023/04/01 09:06:46;;;;;;;;;;;19.80;43.90;;;;;;5090885;28;19924;-58
2023/04/01 09:09:30;;;;;;;;;;;19.80;43.90;;;;;;5104419;27;19951;-58
2023/04/01 09:12:02;;;;;;;;;;;19.80;43.80;;;;;;5098889;28;19924;-58
2023/04/01 09:14:46;;;;;;;;;;;19.80;43.80;;;;;;5090762;28;19931;-58
2023/04/01 09:17:31;;;;;;;;;;;19.80;43.70;;;;;;5087705;28;19920;-58
2023/04/01 09:20:03;;;;;;;;;;;19.80;43.70;;;;;;5095695;28;19932;-58
2023/04/01 09:22:36;;;;;;;;;;;19.80;43.70;;;;;;5094266;28;19924;-58
2023/04/01 09:25:21;;;;;;;;;;;19.80;43.70;;;;;;5094800;28;19924;-58
2023/04/01 09:27:50;;;;;;;;;;;19.80;43.70;;;;;;5097055;28;19952;-58
2023/04/01 09:30:35;;;;;;;;;;;19.80;43.70;;;;;;5098259;28;19919;-58
2023/04/01 09:33:09;;;;;;;;;;;19.80;43.60;;;;;;5093902;28;19939;-58
2023/04/01 09:35:41;;;;;;;;;;;19.80;43.60;;;;;;5092211;28;20197;-57
2023/04/01 09:38:14;;;;;;;;;;;19.70;43.50;;;;;;5122016;27;19919;-58
2023/04/01 09:40:43;;;;;;;;;;;19.80;43.60;;;;;;5114906;27;19920;-58
2023/04/01 09:43:17;;;;;;;;;;;19.80;43.60;;;;;;5110807;28;19997;-58
2023/04/01 09:45:49;;;;;;;;;;;19.70;43.50;;;;;;5103365;27;19924;-58
2023/04/01 09:48:18;;;;;;;;;;;19.80;43.50;;;;;;5109721;28;20271;-58
2023/04/01 09:50:49;;;;;;;;;;;19.70;43.50;;;;;;5090883;28;19924;-58
2023/04/01 09:53:21;;;;;;;;;;;19.70;43.40;;;;;;5096133;28;19989;-60
2023/04/01 09:55:54;;;;;;;;;;;19.70;43.40;;;;;;5088341;27;19970;-59
2023/04/01 09:58:39;;;;;;;;;;;19.70;43.60;;;;;;5115554;27;19932;-58
2023/04/01 10:01:21;;;;;;;;;;;19.80;43.60;;;;;;5107120;28;19919;-58
2023/04/01 10:04:07;;;;;;;;;;;19.70;43.60;;;;;;5099163;28;19931;-58
2023/04/01 10:06:57;;;;;;;;;;;19.80;43.70;;;;;;5100188;28;19919;-58
2023/04/01 10:09:43;;;;;;;;;;;19.80;43.70;;;;;;5102298;28;19920;-59
2023/04/01 10:12:19;;;;;;;;;;;19.70;43.50;;;;;;5108530;28;19920;-59
2023/04/01 10:15:12;;;;;;;;;;;19.80;43.60;;;;;;5100270;28;19999;-57
2023/04/01 10:17:52;;;;;;;;;;;19.80;43.70;;;;;;5098381;28;20003;-58
2023/04/01 10:20:28;;;;;;;;;;;19.80;43.70;;;;;;5102169;27;19932;-58
2023/04/01 10:23:12;;;;;;;;;;;19.80;43.70;;;;;;5111244;27;19931;-58
2023/04/01 10:26:00;;;;;;;;;;;19.80;43.80;;;;;;5099264;28;20038;-58
2023/04/01 10:28:48;;;;;;;;;;;19.80;43.70;;;;;;5092875;28;20354;-59
2023/04/01 10:31:45;;;;;;;;;;;19.80;43.70;;;;;;5091146;28;20009;-58
2023/04/01 10:34:27;;;;;;;;;;;19.80;43.70;;;;;;5041364;28;20023;-59
2023/04/01 10:36:55;;;;;;;;;;;19.80;43.60;;;;;;5086161;27;19924;-59
2023/04/01 10:39:34;;;;;;;;;;;19.80;43.60;;;;;;5100332;27;19935;-59
2023/04/01 10:42:23;;;;;;;;;;;19.80;43.60;;;;;;5101234;28;19920;-59
2023/04/01 10:44:59;;;;;;;;;;;19.90;43.70;;;;;;5090940;28;20012;-58
2023/04/01 10:47:41;;;;;;;;;;;19.80;43.70;;;;;;5107636;28;19919;-59
2023/04/01 10:50:29;;;;;;;;;;;19.90;43.80;;;;;;5096736;28;19970;-58
2023/04/01 10:53:14;;;;;;;;;;;19.90;43.80;;;;;;5093433;28;20281;-58
2023/04/01 10:55:50;;;;;;;;;;;19.90;43.80;;;;;;5109815;27;19924;-58
2023/04/01 10:58:38;;;;;;;;;;;19.90;43.80;;;;;;5108221;28;19919;-57
2023/04/01 11:01:15;;;;;;;;;;;19.90;43.80;;;;;;5087226;28;19931;-58
2023/04/01 11:03:50;;;;;;;;;;;19.90;43.80;;;;;;5100944;28;20001;-59
2023/04/01 11:06:31;;;;;;;;;;;19.90;43.70;;;;;;5090229;28;19950;-58
2023/04/01 11:09:16;;;;;;;;;;;19.90;43.80;;;;;;5090528;28;19930;-58
2023/04/01 11:12:16;;;;;;;;;;;20.00;43.80;;;;;;5091892;28;20455;-57
2023/04/01 11:15:13;;;;;;;;;;;19.90;43.70;;;;;;5095217;28;19969;-58
2023/04/01 11:17:46;;;;;;;;;;;20.00;43.80;;;;;;5096944;28;19927;-58
2023/04/01 11:20:23;;;;;;;;;;;20.00;43.80;;;;;;5095222;28;19982;-58
2023/04/01 11:22:57;;;;;;;;;;;20.00;43.80;;;;;;5098707;28;19927;-58
2023/04/01 11:25:39;;;;;;;;;;;20.00;43.80;;;;;;5101447;27;19929;-55
2023/04/01 11:28:17;;;;;;;;;;;20.00;43.80;;;;;;5101386;28;20334;-58
2023/04/01 11:30:51;;;;;;;;;;;20.00;43.70;;;;;;5101052;28;19930;-58
2023/04/01 11:33:20;;;;;;;;;;;20.00;43.70;;;;;;5105240;28;19935;-58
2023/04/01 11:35:56;;;;;;;;;;;20.00;43.70;;;;;;5096957;28;20030;-58
2023/04/01 11:38:26;;;;;;;;;;;20.00;44.20;;;;;;5097699;28;19997;-57
2023/04/01 11:40:55;;;;;;;;;;;20.00;43.60;;;;;;5094850;28;19919;-58
2023/04/01 11:43:22;;;;;;;;;;;20.00;43.60;;;;;;5108062;28;19919;-56
2023/04/01 11:45:50;;;;;;;;;;;20.10;43.70;;;;;;5097415;28;19926;-58
2023/04/01 11:48:23;;;;;;;;;;;20.00;43.60;;;;;;5096184;28;19945;-58
2023/04/01 11:50:56;;;;;;;;;;;20.10;43.60;;;;;;5113112;28;19920;-58
2023/04/01 11:53:24;;;;;;;;;;;20.00;43.50;;;;;;5100938;28;19920;-58
2023/04/01 11:55:55;;;;;;;;;;;20.10;43.50;;;;;;5087201;28;20022;-59
2023/04/01 11:58:30;;;;;;;;;;;20.10;43.50;;;;;;5095586;28;19929;-58
2023/04/01 12:00:59;;;;;;;;;;;20.00;43.40;;;;;;5094809;28;19931;-59
2023/04/01 12:03:34;;;;;;;;;;;20.00;43.40;;;;;;5096130;28;20317;-58
2023/04/01 12:06:03;;;;;;;;;;;20.00;43.40;;;;;;5104562;28;19920;-58
2023/04/01 12:08:32;;;;;;;;;;;20.00;43.30;;;;;;5091601;28;19990;-58
2023/04/01 12:11:01;;;;;;;;;;;20.00;43.00;;;;;;5088627;28;19966;-58
2023/04/01 12:13:31;;;;;;;;;;;20.00;42.60;;;;;;5082122;28;20014;-57
2023/04/01 12:16:02;;;;;;;;;;;20.00;41.80;;;;;;5100513;28;19959;-58
2023/04/01 12:18:30;;;;;;;;;;;20.00;41.40;;;;;;5107336;28;19976;-57
2023/04/01 12:20:59;;;;;;;;;;;19.90;41.40;;;;;;5107122;28;19959;-58
2023/04/01 12:23:34;;;;;;;;;;;19.80;41.30;;;;;;5091714;28;19923;-58
2023/04/01 12:26:11;;;;;;;;;;;19.70;41.30;;;;;;5093355;28;19956;-58
2023/04/01 12:28:41;;;;;;;;;;;19.70;41.60;;;;;;5110130;28;19964;-58
2023/04/01 12:31:11;;;;;;;;;;;19.60;41.70;;;;;;5114941;27;19927;-58
2023/04/01 12:33:42;;;;;;;;;;;19.70;41.90;;;;;;5101329;28;19927;-58
2023/04/01 12:36:13;;;;;;;;;;;19.60;41.90;;;;;;5112608;28;19927;-58
2023/04/01 12:38:43;;;;;;;;;;;19.70;41.90;;;;;;5112195;28;20350;-58
2023/04/01 12:41:11;;;;;;;;;;;19.70;42.00;;;;;;5111381;28;19954;-58
2023/04/01 12:43:59;;;;;;;;;;;19.70;42.00;;;;;;5093733;28;20010;-58
2023/04/01 12:46:26;;;;;;;;;;;19.70;42.10;;;;;;5090506;28;19920;-58
2023/04/01 12:49:16;;;;;;;;;;;19.70;42.00;;;;;;5092389;28;19930;-58
2023/04/01 12:51:48;;;;;;;;;;;19.70;42.00;;;;;;5109363;28;19931;-58
2023/04/01 12:54:40;;;;;;;;;;;19.70;42.00;;;;;;5093806;28;19959;-58
2023/04/01 12:57:11;;;;;;;;;;;19.70;42.00;;;;;;5103370;28;19927;-59
2023/04/01 12:59:53;;;;;;;;;;;19.70;41.90;;;;;;5093363;28;19924;-59
2023/04/01 13:02:21;;;;;;;;;;;19.70;41.90;;;;;;5092806;28;19927;-59
2023/04/01 13:04:51;;;;;;;;;;;19.70;41.90;;;;;;5107634;27;19931;-59
2023/04/01 13:07:24;;;;;;;;;;;19.70;41.80;;;;;;5094138;28;19924;-59
2023/04/01 13:09:52;;;;;;;;;;;19.70;41.80;;;;;;5091248;28;19931;-59
2023/04/01 13:12:24;;;;;;;;;;;19.70;41.80;;;;;;5108656;28;19923;-58
2023/04/01 13:15:06;;;;;;;;;;;19.70;41.80;;;;;;5090581;27;20367;-60
2023/04/01 13:17:35;;;;;;;;;;;19.70;41.80;;;;;;5097433;27;19931;-59
2023/04/01 13:20:04;;;;;;;;;;;19.70;41.80;;;;;;5081520;28;19958;-59
2023/04/01 13:22:43;;;;;;;;;;;19.80;42.50;;;;;;5097944;27;20376;-59
2023/04/01 13:25:12;;;;;;;;;;;19.70;41.80;;;;;;5107952;27;19938;-59
2023/04/01 13:27:39;;;;;;;;;;;19.80;41.80;;;;;;5092282;28;19969;-59
2023/04/01 13:30:13;;;;;;;;;;;19.70;41.70;;;;;;5088078;27;20283;-59
2023/04/01 13:32:41;;;;;;;;;;;19.80;41.70;;;;;;5105121;28;19928;-59
2023/04/01 13:35:19;;;;;;;;;;;19.80;41.70;;;;;;5105560;28;19919;-58
2023/04/01 13:37:51;;;;;;;;;;;19.80;41.70;;;;;;5088684;28;19989;-60
2023/04/01 13:40:32;;;;;;;;;;;19.80;41.60;;;;;;5105660;28;19924;-59
2023/04/01 13:42:59;;;;;;;;;;;19.70;41.60;;;;;;5104227;28;19969;-58
2023/04/01 13:45:27;;;;;;;;;;;19.80;41.70;;;;;;5093140;27;20285;-59
2023/04/01 13:48:12;;;;;;;;;;;19.80;41.70;;;;;;5089026;28;19939;-60
2023/04/01 13:50:44;;;;;;;;;;;19.80;41.80;;;;;;5082959;28;19945;-59
2023/04/01 13:53:22;;;;;;;;;;;19.70;41.70;;;;;;5093289;28;19920;-59
2023/04/01 13:55:55;;;;;;;;;;;19.80;41.90;;;;;;5102689;28;19920;-59
2023/04/01 13:58:25;;;;;;;;;;;19.80;41.80;;;;;;5102145;27;19977;-60
2023/04/01 14:00:55;;;;;;;;;;;19.70;41.50;;;;;;5096053;28;19965;-59
2023/04/01 14:03:27;;;;;;;;;;;19.70;41.40;;;;;;5090073;28;19923;-59
2023/04/01 14:05:56;;;;;;;;;;;19.70;41.40;;;;;;5096563;28;19923;-59
2023/04/01 14:08:30;;;;;;;;;;;19.70;41.30;;;;;;5107936;28;20293;-59
2023/04/01 14:11:00;;;;;;;;;;;19.70;41.30;;;;;;5089560;28;20388;-59
2023/04/01 14:13:30;;;;;;;;;;;19.70;41.30;;;;;;5087165;28;19923;-60
2023/04/01 14:16:14;;;;;;;;;;;19.70;41.30;;;;;;5091987;28;20069;-59
2023/04/01 14:18:43;;;;;;;;;;;19.70;41.40;;;;;;5078023;28;19963;-59
2023/04/01 14:21:15;;;;;;;;;;;19.70;41.50;;;;;;5108227;28;19927;-59
2023/04/01 14:23:50;;;;;;;;;;;19.70;41.50;;;;;;5090629;28;19932;-59
2023/04/01 14:26:20;;;;;;;;;;;19.70;41.60;;;;;;5095087;27;20004;-59
2023/04/01 14:28:49;;;;;;;;;;;19.70;41.70;;;;;;5087847;28;19920;-60
2023/04/01 14:31:21;;;;;;;;;;;19.70;41.80;;;;;;5091171;28;19929;-59
2023/04/01 14:33:51;;;;;;;;;;;19.70;41.80;;;;;;5098707;28;19920;-59
2023/04/01 14:36:29;;;;;;;;;;;19.70;41.80;;;;;;5103019;27;19980;-59
2023/04/01 14:38:59;;;;;;;;;;;19.80;41.90;;;;;;5110540;27;20031;-59
2023/04/01 14:41:29;;;;;;;;;;;19.80;41.90;;;;;;5091319;28;19924;-60
2023/04/01 14:44:00;;;;;;;;;;;19.80;41.90;;;;;;5092111;28;19927;-59